Time;durP1;ratioP1;P1;durP2;ratioP2;P2;SDS_P1;SDS_P2;PMS_P1;PMS_P2;Temp;Humidity;BMP_temperature;BMP_pressure;BME280_temperature;BME280_humidity;BME280_pressure;Samples;Min_cycle;Max_cycle;Signal;HPM_P1;HPM_P2
2022/12/24 00:02:25;;;;;;;27.13;4.80;;;;;;;9.62;100.00;100447.06;4994704;28;20053;-72
2022/12/24 00:04:51;;;;;;;24.75;4.05;;;;;;;9.65;100.00;100454.84;4991918;28;20043;-71
2022/12/24 00:07:16;;;;;;;35.38;5.00;;;;;;;9.72;100.00;100449.00;4991419;28;20411;-71
2022/12/24 00:09:42;;;;;;;34.72;4.22;;;;;;;9.73;100.00;100455.19;5001842;28;20054;-72
2022/12/24 00:12:07;;;;;;;37.70;6.43;;;;;;;9.72;100.00;100453.47;4992475;28;20046;-71
2022/12/24 00:14:33;;;;;;;32.63;6.55;;;;;;;9.72;100.00;100451.66;4992401;28;20053;-70
2022/12/24 00:16:58;;;;;;;38.17;5.97;;;;;;;9.68;100.00;100451.97;4983162;28;20052;-71
2022/12/24 00:19:24;;;;;;;31.38;6.88;;;;;;;9.63;100.00;100452.25;4988618;28;20061;-70
2022/12/24 00:21:49;;;;;;;46.92;7.25;;;;;;;9.63;100.00;100457.59;4992566;28;20039;-72
2022/12/24 00:24:15;;;;;;;23.50;4.47;;;;;;;9.62;100.00;100455.03;4979534;28;20464;-70
2022/12/24 00:26:40;;;;;;;33.70;5.57;;;;;;;9.66;100.00;100469.84;4993331;28;20046;-72
2022/12/24 00:29:05;;;;;;;44.58;6.32;;;;;;;9.61;100.00;100456.84;4991949;28;20054;-72
2022/12/24 00:31:31;;;;;;;29.73;4.85;;;;;;;9.63;100.00;100460.25;4992389;28;20050;-70
2022/12/24 00:33:56;;;;;;;40.70;7.47;;;;;;;9.59;100.00;100467.59;4990154;28;20080;-70
2022/12/24 00:36:22;;;;;;;40.20;5.85;;;;;;;9.59;100.00;100459.63;4992647;28;20057;-71
2022/12/24 00:38:47;;;;;;;23.85;6.80;;;;;;;9.61;100.00;100472.81;4989867;28;20046;-71
2022/12/24 00:41:23;;;;;;;25.48;4.75;;;;;;;9.56;100.00;100470.44;4988264;28;20050;-72
2022/12/24 00:43:59;;;;;;;24.58;4.68;;;;;;;9.60;100.00;100479.94;4994104;28;20042;-71
2022/12/24 00:46:26;;;;;;;38.00;6.60;;;;;;;9.60;100.00;100485.28;4990852;28;20818;-71
2022/12/24 00:48:52;;;;;;;34.28;4.93;;;;;;;9.58;100.00;100489.81;4991492;28;20565;-71
2022/12/24 00:51:18;;;;;;;33.03;5.35;;;;;;;9.57;100.00;100493.44;5011414;28;20054;-70
2022/12/24 00:53:43;;;;;;;27.00;4.22;;;;;;;9.63;100.00;100491.34;4980787;28;20057;-72
2022/12/24 00:56:09;;;;;;;38.17;6.20;;;;;;;9.54;100.00;100500.81;4984480;28;20042;-71
2022/12/24 00:58:35;;;;;;;33.55;6.38;;;;;;;9.55;100.00;100495.38;4990367;28;20671;-71
2022/12/24 01:01:01;;;;;;;38.05;6.60;;;;;;;9.55;100.00;100500.69;4988185;28;20138;-71
2022/12/24 01:03:34;;;;;;;45.53;6.30;;;;;;;9.54;100.00;100504.31;4988038;28;20129;-72
2022/12/24 01:06:02;;;;;;;35.88;7.65;;;;;;;9.52;100.00;100514.19;4988249;28;20069;-71
2022/12/24 01:08:28;;;;;;;30.60;5.28;;;;;;;9.55;100.00;100516.66;4986476;28;20891;-72
2022/12/24 01:10:53;;;;;;;37.13;5.40;;;;;;;9.48;100.00;100518.00;4990869;28;20058;-71
2022/12/24 01:13:19;;;;;;;41.08;7.03;;;;;;;9.51;100.00;100524.94;4996868;28;20076;-72
2022/12/24 01:15:44;;;;;;;41.25;5.32;;;;;;;9.53;100.00;100539.00;4987853;28;20056;-71
2022/12/24 01:18:09;;;;;;;32.40;5.72;;;;;;;9.49;100.00;100541.03;4990558;28;20177;-70
2022/12/24 01:20:35;;;;;;;68.32;7.80;;;;;;;9.51;100.00;100544.44;4994915;28;20050;-72
2022/12/24 01:23:00;;;;;;;46.53;5.70;;;;;;;9.51;100.00;100541.75;4996085;28;20041;-71
2022/12/24 01:25:26;;;;;;;30.58;4.65;;;;;;;9.53;100.00;100552.31;4994922;28;20049;-72
2022/12/24 01:27:52;;;;;;;32.58;6.75;;;;;;;9.50;100.00;100552.53;4994422;28;20518;-71
2022/12/24 01:30:17;;;;;;;33.05;5.45;;;;;;;9.53;100.00;100557.63;4995898;28;20058;-70
2022/12/24 01:32:43;;;;;;;46.30;7.30;;;;;;;9.51;100.00;100552.41;4995222;28;20049;-70
2022/12/24 01:35:09;;;;;;;51.63;7.43;;;;;;;9.52;100.00;100567.41;4995553;28;20801;-70
2022/12/24 01:37:34;;;;;;;42.80;5.75;;;;;;;9.49;100.00;100562.31;4985595;28;20586;-71
2022/12/24 01:45:50;;;;;;;32.55;7.53;;;;;;;9.42;100.00;100568.97;4991631;28;20057;-71
2022/12/24 01:48:24;;;;;;;43.78;6.05;;;;;;;9.39;100.00;100573.59;4991144;28;20038;-71
2022/12/24 01:50:54;;;;;;;51.55;8.38;;;;;;;9.47;100.00;100582.81;4978873;28;20080;-71
2022/12/24 01:53:20;;;;;;;46.47;8.27;;;;;;;9.42;100.00;100582.25;4969401;28;20120;-71
2022/12/24 01:55:47;;;;;;;48.90;8.13;;;;;;;9.38;100.00;100583.41;4993466;28;20054;-71
2022/12/24 01:58:15;;;;;;;37.72;7.35;;;;;;;9.44;100.00;100584.81;4979252;28;20146;-71
2022/12/24 02:00:40;;;;;;;49.00;6.32;;;;;;;9.40;100.00;100596.63;5007742;28;20133;-71
2022/12/24 02:03:06;;;;;;;47.80;8.25;;;;;;;9.35;100.00;100596.91;4990134;28;20049;-70
2022/12/24 02:05:40;;;;;;;43.30;7.68;;;;;;;9.33;100.00;100607.63;4989826;28;20042;-70
2022/12/24 02:08:07;;;;;;;55.53;6.82;;;;;;;9.28;100.00;100612.38;4986699;28;20551;-70
2022/12/24 02:10:33;;;;;;;41.33;6.50;;;;;;;9.28;100.00;100615.03;4987891;28;20037;-70
2022/12/24 02:12:59;;;;;;;38.97;6.95;;;;;;;9.28;100.00;100611.53;4995718;28;20888;-70
2022/12/24 02:15:32;;;;;;;50.85;7.43;;;;;;;9.27;100.00;100620.47;4990019;28;20411;-71
2022/12/24 02:18:13;;;;;;;44.72;8.18;;;;;;;9.31;100.00;100619.34;4987856;28;20056;-71
2022/12/24 02:21:00;;;;;;;49.88;7.15;;;;;;;9.31;100.00;100629.97;4993781;28;20043;-71
2022/12/24 02:23:46;;;;;;;46.05;6.88;;;;;;;9.27;100.00;100636.44;4997160;28;20058;-71
2022/12/24 02:26:33;;;;;;;41.35;7.82;;;;;;;9.27;100.00;100633.78;4982415;28;20061;-70
2022/12/24 02:29:20;;;;;;;37.90;5.53;;;;;;;9.24;100.00;100639.31;4988457;28;20566;-71
2022/12/24 02:32:14;;;;;;;33.30;5.53;;;;;;;9.06;100.00;100643.91;4982412;28;20050;-72
2022/12/24 02:34:56;;;;;;;40.40;4.93;;;;;;;9.01;100.00;100646.00;4995226;28;20181;-71
2022/12/24 02:37:26;;;;;;;35.67;5.35;;;;;;;8.93;100.00;100653.56;4988388;28;20084;-71
2022/12/24 02:40:04;;;;;;;39.15;5.43;;;;;;;8.86;100.00;100652.22;4986929;28;20053;-71
2022/12/24 02:42:36;;;;;;;28.73;5.25;;;;;;;8.86;100.00;100657.56;4994437;28;20116;-71
2022/12/24 02:45:06;;;;;;;40.97;5.63;;;;;;;8.83;100.00;100663.88;4991018;28;20523;-70
2022/12/24 02:47:32;;;;;;;46.35;6.57;;;;;;;8.76;100.00;100660.75;4990650;28;20050;-70
2022/12/24 02:50:00;;;;;;;38.63;5.97;;;;;;;8.78;100.00;100658.84;4998714;28;20140;-70
2022/12/24 02:52:33;;;;;;;44.90;6.68;;;;;;;8.67;100.00;100660.44;4984580;28;20056;-71
2022/12/24 02:55:22;;;;;;;33.92;7.43;;;;;;;8.64;100.00;100660.63;4990960;28;20116;-71
2022/12/24 02:58:15;;;;;;;36.42;7.82;;;;;;;8.66;100.00;100672.00;4987883;28;20129;-71
2022/12/24 03:00:49;;;;;;;37.92;6.50;;;;;;;8.56;100.00;100666.38;4990479;28;20096;-70
2022/12/24 03:03:34;;;;;;;54.38;7.43;;;;;;;8.50;100.00;100667.59;4985241;28;20081;-71
2022/12/24 03:06:12;;;;;;;54.22;8.55;;;;;;;8.53;100.00;100677.16;4996484;28;20061;-70
2022/12/24 03:09:05;;;;;;;44.13;7.00;;;;;;;8.46;100.00;100670.50;4989372;28;20070;-70
2022/12/24 03:11:32;;;;;;;36.22;5.28;;;;;;;8.49;100.00;100667.69;4999897;28;20057;-70
2022/12/24 03:13:58;;;;;;;56.97;8.05;;;;;;;8.38;100.00;100678.91;4994472;28;20157;-70
2022/12/24 03:16:26;;;;;;;56.30;7.97;;;;;;;8.36;100.00;100675.47;4992941;28;20058;-70
2022/12/24 03:18:54;;;;;;;46.78;5.70;;;;;;;8.35;100.00;100679.06;4992605;28;20042;-69
2022/12/24 03:21:26;;;;;;;42.63;6.85;;;;;;;8.36;100.00;100679.91;5001406;28;20064;-70
2022/12/24 03:23:52;;;;;;;33.53;6.07;;;;;;;8.40;100.00;100678.84;4995726;28;20301;-70
2022/12/24 03:26:19;;;;;;;42.17;5.95;;;;;;;8.43;100.00;100668.88;4991398;28;20050;-70
2022/12/24 03:28:45;;;;;;;42.38;6.57;;;;;;;8.46;100.00;100671.34;4996257;28;20072;-70
2022/12/24 03:31:11;;;;;;;43.90;7.25;;;;;;;8.43;100.00;100683.94;5000149;28;20056;-70
2022/12/24 03:33:38;;;;;;;37.17;5.63;;;;;;;8.49;100.00;100686.28;4996020;28;20046;-70
2022/12/24 03:36:05;;;;;;;43.22;7.03;;;;;;;8.56;100.00;100691.16;4987130;28;20042;-69
2022/12/24 03:38:30;;;;;;;39.53;7.53;;;;;;;8.46;100.00;100689.97;4995998;28;20065;-70
2022/12/24 03:40:56;;;;;;;41.53;6.55;;;;;;;8.53;100.00;100691.34;4996499;28;20072;-70
2022/12/24 03:43:21;;;;;;;33.15;5.97;;;;;;;8.45;100.00;100693.56;4995797;28;20046;-70
2022/12/24 03:45:47;;;;;;;40.90;5.85;;;;;;;8.41;100.00;100700.00;4998938;28;20227;-73
2022/12/24 03:48:12;;;;;;;43.90;6.28;;;;;;;8.37;100.00;100695.78;4994915;28;20054;-72
2022/12/24 03:50:38;;;;;;;49.95;8.05;;;;;;;8.34;100.00;100695.94;4987421;28;20046;-72
2022/12/24 03:53:03;;;;;;;49.38;6.60;;;;;;;8.28;100.00;100704.25;4996313;28;20092;-70
2022/12/24 03:55:29;;;;;;;55.20;8.98;;;;;;;8.41;100.00;100705.31;4990363;28;20051;-70
2022/12/24 03:57:54;;;;;;;47.63;7.47;;;;;;;8.46;100.00;100703.25;4995716;28;20104;-70
2022/12/24 04:00:20;;;;;;;43.17;7.72;;;;;;;8.59;100.00;100702.56;4996620;28;20046;-71
2022/12/24 04:02:45;;;;;;;44.90;7.28;;;;;;;8.62;100.00;100697.91;4998372;28;20775;-70
2022/12/24 04:05:17;;;;;;;55.20;6.70;;;;;;;8.67;100.00;100693.19;4988932;28;20806;-70
2022/12/24 04:07:42;;;;;;;45.57;7.80;;;;;;;8.74;100.00;100694.56;4991962;28;20049;-70
2022/12/24 04:10:09;;;;;;;36.42;7.15;;;;;;;8.71;100.00;100701.84;4994564;28;20042;-70
2022/12/24 04:12:34;;;;;;;42.90;6.38;;;;;;;8.73;100.00;100708.75;4990047;28;20141;-69
2022/12/24 04:15:00;;;;;;;62.55;9.70;;;;;;;8.77;100.00;100706.78;4996240;28;20040;-71
2022/12/24 04:17:25;;;;;;;50.83;7.65;;;;;;;8.73;100.00;100713.22;4992815;28;20062;-70
2022/12/24 04:19:53;;;;;;;37.70;8.27;;;;;;;8.72;100.00;100723.00;4992897;28;20054;-70
2022/12/24 04:22:19;;;;;;;44.08;8.88;;;;;;;8.83;100.00;100725.03;4993955;28;20093;-71
2022/12/24 04:24:44;;;;;;;39.28;8.57;;;;;;;8.85;100.00;100717.00;4986081;28;20050;-70
2022/12/24 04:27:12;;;;;;;69.97;11.65;;;;;;;8.90;100.00;100720.25;4999076;28;20042;-70
2022/12/24 04:29:37;;;;;;;54.60;7.93;;;;;;;8.90;100.00;100721.09;4987979;28;20057;-70
2022/12/24 04:32:03;;;;;;;48.15;9.48;;;;;;;8.93;100.00;100723.56;4992930;28;20046;-70
2022/12/24 04:34:28;;;;;;;51.10;9.05;;;;;;;8.99;100.00;100725.03;4989792;28;20078;-70
2022/12/24 04:36:53;;;;;;;46.60;7.25;;;;;;;8.97;100.00;100734.88;4990189;28;20054;-70
2022/12/24 04:39:19;;;;;;;49.65;10.35;;;;;;;9.05;100.00;100730.00;4987369;28;20046;-71
2022/12/24 04:41:44;;;;;;;45.05;8.23;;;;;;;9.05;100.00;100730.84;4986575;28;20058;-70
2022/12/24 04:44:10;;;;;;;46.10;7.50;;;;;;;9.06;100.00;100724.56;4993766;28;20044;-70
2022/12/24 04:46:35;;;;;;;44.35;7.43;;;;;;;9.15;100.00;100728.50;4981321;28;20047;-70
2022/12/24 04:49:01;;;;;;;59.83;9.18;;;;;;;9.18;100.00;100736.28;4993379;28;20399;-70
2022/12/24 04:51:27;;;;;;;47.95;8.32;;;;;;;9.23;100.00;100736.00;5008903;28;20049;-70
2022/12/24 04:53:53;;;;;;;48.50;8.52;;;;;;;9.20;100.00;100738.88;4996064;28;20193;-69
2022/12/24 04:56:21;;;;;;;49.65;8.43;;;;;;;9.22;100.00;100728.97;4993500;28;20487;-70
2022/12/24 04:58:47;;;;;;;43.25;8.50;;;;;;;9.22;100.00;100734.28;4994424;28;20046;-70
2022/12/24 05:01:17;;;;;;;59.45;10.50;;;;;;;9.27;100.00;100740.19;5000135;28;20048;-70
2022/12/24 05:03:42;;;;;;;62.28;8.00;;;;;;;9.29;100.00;100747.16;4994908;28;20058;-71
2022/12/24 05:06:12;;;;;;;51.97;10.02;;;;;;;9.34;100.00;100739.75;4993882;28;20573;-70
2022/12/24 05:08:38;;;;;;;34.20;8.13;;;;;;;9.31;100.00;100745.25;4998420;28;20053;-70
2022/12/24 05:11:04;;;;;;;41.67;8.27;;;;;;;9.28;100.00;100748.09;4999076;28;20570;-71
2022/12/24 05:13:30;;;;;;;43.63;9.73;;;;;;;9.34;100.00;100741.56;4999725;28;20050;-70
2022/12/24 05:15:55;;;;;;;51.42;8.20;;;;;;;9.40;100.00;100743.00;4991784;28;20050;-71
2022/12/24 05:18:21;;;;;;;58.75;9.23;;;;;;;9.39;100.00;100742.16;4991806;28;20054;-70
2022/12/24 05:20:47;;;;;;;43.05;7.15;;;;;;;9.41;100.00;100748.22;4990639;28;20046;-70
2022/12/24 05:26:23;;;;;;;38.75;8.32;;;;;;;9.38;100.00;100737.75;4988549;28;20121;-69
2022/12/24 05:28:58;;;;;;;58.63;9.45;;;;;;;9.43;100.00;100735.66;5014332;28;20038;-70
2022/12/24 05:31:26;;;;;;;50.13;8.93;;;;;;;9.45;100.00;100743.59;4995477;28;20053;-70
2022/12/24 05:33:53;;;;;;;49.85;9.40;;;;;;;9.46;100.00;100751.47;4992668;28;20534;-70
2022/12/24 05:36:19;;;;;;;44.40;8.15;;;;;;;9.51;100.00;100753.84;4989731;28;20799;-69
2022/12/24 05:38:44;;;;;;;40.55;7.95;;;;;;;9.53;100.00;100757.25;4993224;28;20081;-71
2022/12/24 05:41:10;;;;;;;51.92;12.02;;;;;;;9.52;100.00;100761.72;4995001;28;20057;-70
2022/12/24 05:43:36;;;;;;;51.38;7.80;;;;;;;9.53;100.00;100765.25;4986648;28;20105;-71
2022/12/24 05:46:07;;;;;;;40.15;7.10;;;;;;;9.54;100.00;100765.19;4992574;28;20045;-71
2022/12/24 05:48:33;;;;;;;38.65;10.07;;;;;;;9.51;100.00;100762.69;4976086;28;20057;-70
2022/12/24 05:51:02;;;;;;;43.88;9.35;;;;;;;9.52;100.00;100767.06;4993448;28;20054;-70
2022/12/24 05:53:27;;;;;;;50.53;9.20;;;;;;;9.55;100.00;100771.34;4992209;28;20057;-71
2022/12/24 05:55:53;;;;;;;44.40;9.98;;;;;;;9.60;100.00;100774.59;4979079;28;20038;-71
2022/12/24 05:58:18;;;;;;;49.08;8.13;;;;;;;9.66;100.00;100773.38;4993069;28;20043;-70
2022/12/24 06:00:43;;;;;;;43.25;8.98;;;;;;;9.67;100.00;100770.59;4995661;28;20038;-70
2022/12/24 06:03:09;;;;;;;62.80;12.77;;;;;;;9.68;100.00;100769.63;4995601;28;20585;-71
2022/12/24 06:05:34;;;;;;;49.05;10.57;;;;;;;9.66;100.00;100779.53;4989291;28;20053;-70
2022/12/24 06:08:00;;;;;;;42.70;8.10;;;;;;;9.67;100.00;100773.25;4992213;28;20049;-71
2022/12/24 06:10:25;;;;;;;61.08;10.15;;;;;;;9.72;100.00;100775.66;4995376;28;20050;-71
2022/12/24 06:12:51;;;;;;;38.92;6.82;;;;;;;9.75;100.00;100779.00;4995875;28;20156;-70
2022/12/24 06:15:16;;;;;;;36.45;7.70;;;;;;;9.72;100.00;100784.50;4993206;28;20054;-71
2022/12/24 06:17:42;;;;;;;59.28;8.77;;;;;;;9.77;100.00;100785.06;4990977;28;20056;-71
2022/12/24 06:20:07;;;;;;;50.55;10.55;;;;;;;9.80;100.00;100786.69;4994018;28;20053;-71
2022/12/24 06:22:33;;;;;;;53.40;9.70;;;;;;;9.75;100.00;100794.13;4985505;28;20054;-71
2022/12/24 06:24:58;;;;;;;49.13;8.77;;;;;;;9.79;100.00;100790.31;4970775;28;20042;-70
2022/12/24 06:27:24;;;;;;;58.72;11.68;;;;;;;9.78;100.00;100804.56;4985751;28;20054;-71
2022/12/24 06:29:49;;;;;;;38.65;8.30;;;;;;;9.80;100.00;100802.69;4976671;28;20045;-71
2022/12/24 06:32:15;;;;;;;41.08;8.55;;;;;;;9.80;100.00;100800.88;4982241;28;20045;-70
2022/12/24 06:34:40;;;;;;;47.42;7.72;;;;;;;9.77;100.00;100801.03;5005414;28;20049;-70
2022/12/24 06:37:06;;;;;;;58.53;10.63;;;;;;;9.83;100.00;100813.13;4989714;28;20045;-71
2022/12/24 06:39:31;;;;;;;53.53;8.00;;;;;;;9.86;100.00;100813.81;4983609;28;20541;-71
2022/12/24 06:41:56;;;;;;;38.88;7.32;;;;;;;9.83;100.00;100816.63;4990775;28;20065;-71
2022/12/24 06:44:22;;;;;;;50.72;7.00;;;;;;;9.88;100.00;100818.19;4989361;28;20621;-70
2022/12/24 06:46:48;;;;;;;40.45;8.77;;;;;;;9.82;100.00;100817.59;4982720;28;20503;-70
2022/12/24 06:49:13;;;;;;;70.75;9.27;;;;;;;9.82;100.00;100820.25;4982492;28;20814;-71
2022/12/24 06:51:38;;;;;;;54.53;7.10;;;;;;;9.92;100.00;100825.88;4989114;28;20092;-70
2022/12/24 06:54:04;;;;;;;53.50;9.52;;;;;;;9.87;100.00;100830.63;4987700;28;20065;-71
2022/12/24 06:56:29;;;;;;;59.55;9.48;;;;;;;9.88;100.00;100831.50;4981478;28;20042;-70
2022/12/24 06:58:55;;;;;;;37.58;8.68;;;;;;;9.89;100.00;100828.75;4991074;28;20480;-69
2022/12/24 07:01:22;;;;;;;35.13;7.55;;;;;;;9.84;100.00;100828.19;4988987;28;20051;-70
2022/12/24 07:03:49;;;;;;;43.75;9.32;;;;;;;9.83;100.00;100821.97;4993557;28;20250;-71
2022/12/24 07:06:24;;;;;;;40.25;8.07;;;;;;;9.79;100.00;100825.78;4995533;28;20050;-71
2022/12/24 07:08:49;;;;;;;43.08;9.57;;;;;;;9.80;100.00;100835.50;4977595;28;20961;-70
2022/12/24 07:11:15;;;;;;;53.67;12.05;;;;;;;9.80;100.00;100830.16;4991744;28;20049;-69
2022/12/24 07:13:41;;;;;;;40.78;9.05;;;;;;;9.75;100.00;100829.59;4992477;28;20971;-71
2022/12/24 07:16:06;;;;;;;52.22;8.38;;;;;;;9.69;100.00;100834.41;4983816;28;20057;-70
2022/12/24 07:18:32;;;;;;;43.83;7.40;;;;;;;9.75;100.00;100847.38;4990955;28;20061;-71
2022/12/24 07:20:58;;;;;;;48.95;9.40;;;;;;;9.74;100.00;100846.50;4978117;28;20049;-70
2022/12/24 07:23:24;;;;;;;42.92;9.13;;;;;;;9.72;100.00;100851.06;4996395;28;20038;-70
2022/12/24 07:25:50;;;;;;;52.53;8.50;;;;;;;9.70;100.00;100858.28;4987937;28;20058;-72
2022/12/24 07:28:15;;;;;;;37.35;8.70;;;;;;;9.72;100.00;100866.19;4995106;28;20104;-71
2022/12/24 07:30:41;;;;;;;37.45;8.80;;;;;;;9.65;100.00;100862.19;4984386;28;20058;-71
2022/12/24 07:33:07;;;;;;;55.78;10.00;;;;;;;9.67;100.00;100865.59;4989347;28;20046;-70
2022/12/24 07:35:33;;;;;;;37.03;8.73;;;;;;;9.70;100.00;100873.41;4992540;28;20050;-70
2022/12/24 07:37:58;;;;;;;37.03;8.77;;;;;;;9.72;100.00;100879.50;4977412;28;20042;-70
2022/12/24 07:40:24;;;;;;;53.67;8.82;;;;;;;9.66;100.00;100882.53;4988166;28;20132;-70
2022/12/24 07:42:49;;;;;;;60.08;10.18;;;;;;;9.65;100.00;100881.66;4996284;28;20057;-70
2022/12/24 07:45:15;;;;;;;54.47;10.23;;;;;;;9.72;100.00;100890.16;5012393;28;20046;-71
2022/12/24 07:47:41;;;;;;;41.47;6.95;;;;;;;9.69;100.00;100898.31;5005781;28;20112;-70
2022/12/24 07:50:07;;;;;;;57.78;8.77;;;;;;;9.75;100.00;100898.81;4995758;28;20038;-70
2022/12/24 07:52:32;;;;;;;45.47;8.07;;;;;;;9.74;100.00;100905.09;4992369;28;20518;-70
2022/12/24 07:54:58;;;;;;;48.10;10.13;;;;;;;9.71;100.00;100909.75;4997450;28;20046;-70
2022/12/24 07:57:23;;;;;;;45.55;8.30;;;;;;;9.67;100.00;100914.38;4998896;28;20063;-71
2022/12/24 07:59:49;;;;;;;51.03;8.60;;;;;;;9.69;100.00;100925.81;5000119;28;20511;-70
2022/12/24 08:02:14;;;;;;;39.90;7.30;;;;;;;9.69;100.00;100925.81;4986739;28;20077;-71
2022/12/24 08:04:40;;;;;;;50.50;9.68;;;;;;;9.68;100.00;100928.53;5011813;28;20046;-71
2022/12/24 08:07:06;;;;;;;45.80;8.07;;;;;;;9.75;100.00;100936.09;5000367;28;20037;-70
2022/12/24 08:09:33;;;;;;;47.08;8.38;;;;;;;9.73;100.00;100935.31;4988178;28;20100;-70
2022/12/24 08:11:59;;;;;;;61.67;9.27;;;;;;;9.70;100.00;100956.81;4984459;28;20141;-71
2022/12/24 08:14:24;;;;;;;51.17;9.20;;;;;;;9.69;100.00;100948.88;5008342;28;20069;-71
2022/12/24 08:16:50;;;;;;;36.28;7.20;;;;;;;9.73;100.00;100953.09;5004218;28;20077;-70
2022/12/24 08:19:15;;;;;;;56.05;8.57;;;;;;;9.79;100.00;100947.44;5001944;28;20085;-70
2022/12/24 08:21:41;;;;;;;45.47;7.97;;;;;;;9.83;100.00;100949.81;4989848;28;20077;-70
2022/12/24 08:24:07;;;;;;;49.17;7.85;;;;;;;9.87;100.00;100950.50;5004051;28;20050;-71
2022/12/24 08:26:32;;;;;;;48.35;8.60;;;;;;;9.91;100.00;100954.69;4990452;28;20054;-70
2022/12/24 08:28:58;;;;;;;51.65;8.25;;;;;;;9.98;100.00;100961.38;5004137;28;20042;-70
2022/12/24 08:31:23;;;;;;;53.40;8.57;;;;;;;9.95;100.00;100964.22;5005325;28;20046;-71
2022/12/24 08:33:48;;;;;;;41.55;7.13;;;;;;;9.89;100.00;100961.94;5005868;28;20046;-72
2022/12/24 08:36:14;;;;;;;30.25;7.38;;;;;;;10.00;100.00;100969.28;4974151;28;20068;-71
2022/12/24 08:38:39;;;;;;;42.63;8.20;;;;;;;9.99;100.00;100968.44;4998529;28;20046;-71
2022/12/24 08:41:05;;;;;;;50.58;9.45;;;;;;;9.96;100.00;100967.75;5002081;28;20777;-71
2022/12/24 08:43:30;;;;;;;48.38;7.72;;;;;;;9.99;100.00;100970.22;5001097;28;20046;-71
2022/12/24 08:46:01;;;;;;;42.65;8.93;;;;;;;10.00;100.00;100975.47;5006083;28;20093;-71
2022/12/24 08:48:26;;;;;;;32.92;7.57;;;;;;;9.98;100.00;100980.00;4998560;28;20042;-71
2022/12/24 08:50:52;;;;;;;48.55;7.53;;;;;;;10.00;100.00;100977.28;5003934;28;20057;-71
2022/12/24 08:53:17;;;;;;;45.97;10.40;;;;;;;9.99;100.00;100983.53;4997532;28;20060;-72
2022/12/24 08:55:43;;;;;;;51.13;8.02;;;;;;;10.02;100.00;100980.69;5001821;28;20073;-70
2022/12/24 08:58:08;;;;;;;50.97;8.25;;;;;;;10.00;100.00;100991.47;4988668;28;20041;-70
2022/12/24 09:00:34;;;;;;;45.88;7.65;;;;;;;10.04;100.00;100997.44;4988793;28;20042;-71
2022/12/24 09:02:59;;;;;;;54.55;9.13;;;;;;;10.10;100.00;101007.75;4995634;28;20052;-72
2022/12/24 09:05:25;;;;;;;38.78;8.30;;;;;;;10.09;100.00;101011.34;5000898;28;20379;-71
2022/12/24 09:07:50;;;;;;;48.72;9.35;;;;;;;10.11;100.00;101014.81;5002574;28;20050;-71
2022/12/24 09:10:16;;;;;;;52.42;9.93;;;;;;;10.20;100.00;101016.06;5003162;28;20123;-71
2022/12/24 09:12:41;;;;;;;66.70;10.57;;;;;;;10.29;100.00;101015.53;5001532;28;20074;-72
2022/12/24 09:15:09;;;;;;;42.17;8.20;;;;;;;10.29;100.00;101024.41;4980583;28;20041;-71
2022/12/24 09:17:35;;;;;;;45.92;8.55;;;;;;;10.33;100.00;101017.94;4997315;28;20112;-71
2022/12/24 09:20:01;;;;;;;60.70;10.68;;;;;;;10.37;100.00;101022.13;5007437;28;20069;-71
2022/12/24 09:22:26;;;;;;;43.95;11.20;;;;;;;10.31;100.00;101029.66;4992468;28;20049;-71
2022/12/24 09:24:55;;;;;;;43.60;9.05;;;;;;;10.36;100.00;101028.44;5002324;28;20050;-71
2022/12/24 09:27:20;;;;;;;54.17;10.40;;;;;;;10.37;100.00;101032.81;4994343;28;20129;-71
2022/12/24 09:29:46;;;;;;;55.92;9.93;;;;;;;10.39;100.00;101038.03;4988632;28;20049;-71
2022/12/24 09:32:14;;;;;;;45.65;10.00;;;;;;;10.40;100.00;101033.59;4998632;28;20377;-71
2022/12/24 09:34:40;;;;;;;42.03;10.02;;;;;;;10.34;100.00;101051.66;5005240;28;20050;-71
2022/12/24 09:37:05;;;;;;;44.58;10.23;;;;;;;10.43;100.00;101050.22;5000881;28;20053;-71
2022/12/24 09:39:31;;;;;;;41.50;10.65;;;;;;;10.47;100.00;101051.78;4993785;28;20054;-72
2022/12/24 09:42:26;;;;;;;53.08;9.02;;;;;;;10.43;100.00;101057.38;4998701;28;20058;-71
2022/12/24 09:45:05;;;;;;;46.03;9.45;;;;;;;10.54;100.00;101058.47;5006333;28;20550;-71
2022/12/24 09:47:45;;;;;;;34.38;9.73;;;;;;;10.58;100.00;101057.31;5004134;28;20058;-71
2022/12/24 09:50:35;;;;;;;42.17;9.57;;;;;;;10.67;100.00;101069.25;4995485;28;20413;-71
2022/12/24 09:53:06;;;;;;;41.85;10.25;;;;;;;10.61;100.00;101065.16;4998611;28;20046;-69
2022/12/24 09:55:39;;;;;;;42.83;9.10;;;;;;;10.50;100.00;101070.25;4996142;28;20049;-71
2022/12/24 09:58:10;;;;;;;45.28;9.40;;;;;;;10.46;100.00;101068.72;4992894;28;20049;-71
2022/12/24 10:00:37;;;;;;;45.33;8.82;;;;;;;10.50;100.00;101078.25;4975569;28;20065;-72
2022/12/24 10:03:14;;;;;;;54.60;12.55;;;;;;;10.44;100.00;101081.31;4976648;28;20046;-72
2022/12/24 10:05:45;;;;;;;46.63;9.77;;;;;;;10.50;100.00;101077.41;4999214;28;20053;-71
2022/12/24 10:08:29;;;;;;;43.60;9.50;;;;;;;10.42;100.00;101077.00;4996632;28;20038;-72
2022/12/24 10:11:06;;;;;;;42.95;10.68;;;;;;;10.46;100.00;101087.38;5000122;28;20049;-71
2022/12/24 10:13:56;;;;;;;55.03;12.18;;;;;;;10.43;100.00;101087.56;4985175;28;20034;-71
2022/12/24 10:16:28;;;;;;;47.55;12.20;;;;;;;10.64;100.00;101088.09;5014856;28;20172;-71
2022/12/24 10:19:18;;;;;;;49.77;10.00;;;;;;;10.93;100.00;101096.16;4992283;28;20052;-71
2022/12/24 10:21:46;;;;;;;52.85;9.27;;;;;;;10.71;100.00;101085.94;4979076;28;20068;-74
2022/12/24 10:24:21;;;;;;;46.08;10.52;;;;;;;10.70;100.00;101094.88;4997636;28;20073;-70
2022/12/24 10:27:01;;;;;;;42.25;9.27;;;;;;;10.55;100.00;101102.84;4993267;28;20084;-72
2022/12/24 10:29:30;;;;;;;35.13;8.05;;;;;;;10.56;100.00;101101.91;4997393;28;20058;-72
2022/12/24 10:32:08;;;;;;;46.42;9.30;;;;;;;10.76;100.00;101102.53;5004816;28;20107;-72
2022/12/24 10:34:48;;;;;;;47.88;8.85;;;;;;;10.78;100.00;101103.28;5006434;28;20054;-72
2022/12/24 10:37:19;;;;;;;56.30;9.48;;;;;;;10.80;100.00;101109.41;5007186;28;20546;-72
2022/12/24 10:39:44;;;;;;;41.35;7.95;;;;;;;11.05;100.00;101098.94;4995622;28;20080;-71
2022/12/24 10:42:13;;;;;;;50.15;10.38;;;;;;;11.19;100.00;101102.56;5010845;28;20360;-72
2022/12/24 10:44:39;;;;;;;44.90;9.40;;;;;;;11.01;100.00;101094.75;5002394;28;20807;-71
2022/12/24 10:47:07;;;;;;;39.63;8.05;;;;;;;11.07;100.00;101094.38;5005792;28;20049;-71
2022/12/24 10:49:44;;;;;;;41.90;8.32;;;;;;;11.36;100.00;101097.06;5005022;28;20056;-72
2022/12/24 10:52:12;;;;;;;38.90;8.38;;;;;;;11.47;100.00;101085.69;5008128;28;20052;-72
2022/12/24 10:55:10;;;;;;;32.25;7.35;;;;;;;11.33;100.00;101087.41;4996875;28;20774;-72
2022/12/24 10:57:36;;;;;;;41.28;7.78;;;;;;;11.32;100.00;101087.50;4996105;28;20081;-72
2022/12/24 11:00:02;;;;;;;46.67;8.18;;;;;;;11.12;100.00;101078.91;4994043;28;20050;-72
2022/12/24 11:02:30;;;;;;;47.80;8.35;;;;;;;11.11;100.00;101087.88;4981013;28;20047;-72
2022/12/24 11:04:59;;;;;;;39.30;7.10;;;;;;;11.30;100.00;101086.75;4993601;28;20064;-72
2022/12/24 11:07:25;;;;;;;37.70;7.93;;;;;;;11.23;100.00;101098.75;4983894;28;20483;-74
2022/12/24 11:09:58;;;;;;;36.22;8.00;;;;;;;11.14;100.00;101095.72;4988723;28;20065;-72
2022/12/24 11:12:34;;;;;;;47.63;10.93;;;;;;;10.95;100.00;101102.28;4991276;28;20050;-72
2022/12/24 11:15:21;;;;;;;42.35;8.32;;;;;;;10.95;100.00;101100.47;4996768;28;20034;-72
2022/12/24 11:18:02;;;;;;;45.40;7.45;;;;;;;10.97;100.00;101090.53;4981239;28;20797;-72
2022/12/24 11:20:30;;;;;;;45.47;10.30;;;;;;;10.83;100.00;101098.53;4999755;28;20050;-72
2022/12/24 11:22:56;;;;;;;58.55;9.45;;;;;;;10.61;100.00;101099.81;5003085;28;20046;-72
2022/12/24 11:25:32;;;;;;;44.45;8.73;;;;;;;10.53;100.00;101099.41;4988709;28;20122;-72
2022/12/24 11:28:11;;;;;;;44.85;9.07;;;;;;;10.57;100.00;101095.59;5008595;28;20061;-72
2022/12/24 11:30:37;;;;;;;42.58;8.30;;;;;;;10.66;100.00;101098.69;4990085;28;20088;-72